createdAt,value
2022-09-04T00:00:15.128Z,100494.88
2022-09-04T00:02:53.386Z,100503.31
2022-09-04T00:05:28.632Z,100505.47
2022-09-04T00:08:08.169Z,100511.97
2022-09-04T00:10:44.060Z,100514.97
2022-09-04T00:13:17.312Z,100516.88
2022-09-04T00:15:49.325Z,100521.59
2022-09-04T00:18:25.436Z,100518.38
2022-09-04T00:21:02.252Z,100530.22
2022-09-04T00:23:38.503Z,100520.63
2022-09-04T00:26:14.090Z,100527.56
2022-09-04T00:28:45.869Z,100523.28
2022-09-04T00:31:25.850Z,100519.88
2022-09-04T00:34:07.380Z,100520.00
2022-09-04T00:36:46.933Z,100523.75
2022-09-04T00:39:22.862Z,100519.44
2022-09-04T00:42:05.719Z,100521.47
2022-09-04T00:44:44.596Z,100530.53
2022-09-04T00:47:42.034Z,100525.41
2022-09-04T00:50:31.899Z,100523.72
2022-09-04T00:53:16.152Z,100532.66
2022-09-04T00:56:01.198Z,100531.06
2022-09-04T00:58:40.567Z,100531.16
2022-09-04T01:01:13.948Z,100526.06
2022-09-04T01:03:50.881Z,100533.19
2022-09-04T01:06:35.483Z,100534.28
2022-09-04T01:09:26.660Z,100543.22
2022-09-04T01:12:04.860Z,100536.38
2022-09-04T01:14:41.370Z,100530.31
2022-09-04T01:17:17.797Z,100537.75
2022-09-04T01:19:56.449Z,100539.03
2022-09-04T01:22:47.294Z,100538.28
2022-09-04T01:25:31.459Z,100540.94
2022-09-04T01:28:07.991Z,100538.63
2022-09-04T01:30:45.422Z,100543.16
2022-09-04T01:33:21.999Z,100542.31
2022-09-04T01:35:57.185Z,100544.25
2022-09-04T01:38:34.576Z,100535.63
2022-09-04T01:41:08.783Z,100543.59
2022-09-04T01:43:41.095Z,100542.75
2022-09-04T01:46:37.827Z,100541.13
2022-09-04T01:49:13.923Z,100543.06
2022-09-04T01:51:47.466Z,100548.38
2022-09-04T01:54:26.831Z,100555.72
2022-09-04T01:57:07.110Z,100553.16
2022-09-04T01:59:45.574Z,100552.28
2022-09-04T02:02:18.871Z,100560.50
2022-09-04T02:04:53.158Z,100565.69
2022-09-04T02:07:28.764Z,100565.81
2022-09-04T02:10:07.227Z,100559.81
2022-09-04T02:12:42.645Z,100569.53
2022-09-04T02:15:26.151Z,100568.88
2022-09-04T02:18:02.823Z,100569.72
2022-09-04T02:20:33.924Z,100584.84
2022-09-04T02:23:11.799Z,100578.66
2022-09-04T02:25:48.065Z,100583.13
2022-09-04T02:28:25.944Z,100582.50
2022-09-04T02:31:05.265Z,100585.16
2022-09-04T02:33:40.145Z,100587.16
2022-09-04T02:36:14.274Z,100583.75
2022-09-04T02:38:51.227Z,100587.47
2022-09-04T02:41:27.767Z,100584.88
2022-09-04T02:44:09.196Z,100589.56
2022-09-04T02:46:52.324Z,100600.59
2022-09-04T02:49:30.557Z,100598.16
2022-09-04T02:52:10.215Z,100597.19
2022-09-04T02:54:53.742Z,100599.97
2022-09-04T02:57:30.420Z,100604.44
2022-09-04T03:00:08.265Z,100608.13
2022-09-04T03:02:44.980Z,100606.22
2022-09-04T03:05:21.096Z,100608.41
2022-09-04T03:07:57.639Z,100602.13
2022-09-04T03:10:31.700Z,100605.38
2022-09-04T03:13:05.440Z,100611.72
2022-09-04T03:15:40.263Z,100613.81
2022-09-04T03:18:19.342Z,100609.25
2022-09-04T03:20:54.899Z,100610.31
2022-09-04T03:23:28.427Z,100612.19
2022-09-04T03:26:21.304Z,100610.38
2022-09-04T03:29:10.346Z,100610.97
2022-09-04T03:31:44.372Z,100609.63
2022-09-04T03:34:31.858Z,100608.03
2022-09-04T03:37:15.343Z,100603.94
2022-09-04T03:39:52.288Z,100602.25
2022-09-04T03:42:27.623Z,100611.94
2022-09-04T03:45:06.723Z,100618.00
2022-09-04T03:47:48.132Z,100620.75
2022-09-04T03:50:28.514Z,100623.50
2022-09-04T03:53:06.473Z,100621.72
2022-09-04T03:56:12.785Z,100622.47
2022-09-04T03:58:47.984Z,100633.19
2022-09-04T04:01:25.247Z,100629.09
2022-09-04T04:04:09.387Z,100633.69
2022-09-04T04:06:46.595Z,100635.59
2022-09-04T04:09:35.701Z,100638.13
2022-09-04T04:12:37.349Z,100639.09
2022-09-04T04:15:24.428Z,100639.94
2022-09-04T04:18:13.322Z,100637.41
2022-09-04T04:20:49.211Z,100644.31
2022-09-04T04:24:06.474Z,100638.13
2022-09-04T04:26:50.608Z,100639.19
2022-09-04T04:29:43.841Z,100640.16
2022-09-04T04:32:26.523Z,100642.72
2022-09-04T04:35:04.866Z,100648.88
2022-09-04T04:37:50.291Z,100648.03
2022-09-04T04:40:30.208Z,100649.94
2022-09-04T04:43:04.169Z,100656.25
2022-09-04T04:45:52.355Z,100659.13
2022-09-04T04:48:52.071Z,100664.44
2022-09-04T04:51:39.639Z,100668.06
2022-09-04T04:54:25.191Z,100672.72
2022-09-04T04:57:05.234Z,100674.47
2022-09-04T04:59:40.959Z,100679.25
2022-09-04T05:02:21.411Z,100686.38
2022-09-04T05:04:58.144Z,100689.03
2022-09-04T05:07:34.689Z,100683.69
2022-09-04T05:10:11.245Z,100688.16
2022-09-04T05:12:54.279Z,100692.53
2022-09-04T05:15:29.416Z,100696.13
2022-09-04T05:18:04.612Z,100704.00
2022-09-04T05:20:41.838Z,100702.31
2022-09-04T05:23:22.155Z,100701.34
2022-09-04T05:26:03.408Z,100703.16
2022-09-04T05:28:41.466Z,100711.13
2022-09-04T05:31:18.011Z,100717.47
2022-09-04T05:33:55.224Z,100727.16
2022-09-04T05:36:32.708Z,100729.63
2022-09-04T05:39:10.814Z,100732.47
2022-09-04T05:41:48.925Z,100735.78
2022-09-04T05:44:43.045Z,100744.59
2022-09-04T05:47:25.538Z,100745.28
2022-09-04T05:50:10.326Z,100748.81
2022-09-04T05:52:54.753Z,100757.53
2022-09-04T05:55:44.878Z,100754.69
2022-09-04T05:58:26.883Z,100764.91
2022-09-04T06:01:06.939Z,100760.38
2022-09-04T06:03:52.577Z,100762.84
2022-09-04T06:06:24.815Z,100761.91
2022-09-04T06:09:13.527Z,100776.78
2022-09-04T06:11:52.980Z,100771.41
2022-09-04T06:14:45.428Z,100776.16
2022-09-04T06:17:29.268Z,100776.16
2022-09-04T06:24:02.462Z,100779.38
2022-09-04T06:26:46.649Z,100782.88
2022-09-04T06:29:45.444Z,100778.34
2022-09-04T06:32:43.580Z,100777.31
2022-09-04T06:35:36.305Z,100784.34
2022-09-04T06:38:16.668Z,100781.41
2022-09-04T06:40:58.073Z,100781.97
2022-09-04T06:43:37.899Z,100781.00
2022-09-04T06:46:18.643Z,100785.09
2022-09-04T06:48:56.495Z,100789.31
2022-09-04T06:51:37.919Z,100781.81
2022-09-04T06:54:15.468Z,100781.44
2022-09-04T06:56:57.073Z,100787.50
2022-09-04T06:59:45.262Z,100784.31
2022-09-04T07:02:23.356Z,100785.69
2022-09-04T07:05:09.909Z,100785.22
2022-09-04T07:07:42.276Z,100789.09
2022-09-04T07:10:15.180Z,100787.00
2022-09-04T07:13:02.755Z,100791.94
2022-09-04T07:16:00.962Z,100793.91
2022-09-04T07:18:51.186Z,100795.97
2022-09-04T07:21:31.676Z,100796.34
2022-09-04T07:24:06.853Z,100799.47
2022-09-04T07:26:40.430Z,100804.19
2022-09-04T07:29:29.618Z,100793.78
2022-09-04T07:32:05.097Z,100802.91
2022-09-04T07:34:43.481Z,100805.38
2022-09-04T07:37:25.086Z,100805.81
2022-09-04T07:40:04.411Z,100814.25
2022-09-04T07:42:42.897Z,100804.91
2022-09-04T07:45:22.437Z,100808.84
2022-09-04T07:48:00.407Z,100801.09
2022-09-04T07:50:35.467Z,100810.28
2022-09-04T07:53:23.019Z,100812.84
2022-09-04T07:55:55.279Z,100817.53
2022-09-04T07:58:37.414Z,100822.00
2022-09-04T08:01:38.187Z,100834.66
2022-09-04T08:04:39.488Z,100836.56
2022-09-04T08:07:15.306Z,100834.09
2022-09-04T08:10:06.594Z,100830.56
2022-09-04T08:13:02.043Z,100835.00
2022-09-04T08:15:42.832Z,100838.72
2022-09-04T08:18:30.942Z,100839.44
2022-09-04T08:21:17.109Z,100846.44
2022-09-04T08:24:14.847Z,100843.66
2022-09-04T08:26:55.741Z,100848.72
2022-09-04T08:29:36.229Z,100849.16
2022-09-04T08:32:16.556Z,100854.19
2022-09-04T08:35:03.596Z,100848.53
2022-09-04T08:37:40.135Z,100850.88
2022-09-04T08:40:28.919Z,100849.47
2022-09-04T08:43:35.868Z,100841.72
2022-09-04T08:46:36.137Z,100847.44
2022-09-04T08:49:27.297Z,100843.16
2022-09-04T08:52:29.976Z,100840.09
2022-09-04T08:55:41.208Z,100843.03
2022-09-04T08:58:28.954Z,100847.00
2022-09-04T09:01:19.375Z,100847.56
2022-09-04T09:04:00.851Z,100848.22
2022-09-04T09:07:00.358Z,100854.00
2022-09-04T09:09:58.206Z,100859.22
2022-09-04T09:13:05.520Z,100850.84
2022-09-04T09:16:12.406Z,100857.69
2022-09-04T09:18:59.011Z,100855.53
2022-09-04T09:21:38.092Z,100855.19
2022-09-04T09:24:24.329Z,100854.38
2022-09-04T09:27:06.080Z,100852.34
2022-09-04T09:30:04.037Z,100861.00
2022-09-04T09:32:59.485Z,100853.09
2022-09-04T09:35:56.043Z,100850.88
2022-09-04T09:39:10.042Z,100848.94
2022-09-04T09:42:23.954Z,100845.41
2022-09-04T09:45:25.447Z,100853.13
2022-09-04T09:48:35.897Z,100855.66
2022-09-04T09:51:19.216Z,100852.81
2022-09-04T09:54:16.249Z,100849.84
2022-09-04T09:57:19.218Z,100843.03
2022-09-04T10:00:12.473Z,100838.91
2022-09-04T10:03:17.674Z,100845.16
2022-09-04T10:06:19.697Z,100852.06
2022-09-04T10:09:09.569Z,100844.84
2022-09-04T10:12:12.411Z,100848.50
2022-09-04T10:15:05.563Z,100845.91
2022-09-04T10:18:08.296Z,100844.19
2022-09-04T10:21:00.555Z,100843.44
2022-09-04T10:23:54.341Z,100843.41
2022-09-04T10:26:50.183Z,100839.34
2022-09-04T10:29:45.055Z,100840.03
2022-09-04T10:32:38.092Z,100841.81
2022-09-04T10:35:28.897Z,100853.09
2022-09-04T10:38:09.043Z,100856.19
2022-09-04T10:40:49.297Z,100856.72
2022-09-04T10:43:41.890Z,100848.78
2022-09-04T10:46:22.707Z,100856.19
2022-09-04T10:49:15.491Z,100847.38
2022-09-04T10:52:17.913Z,100852.94
2022-09-04T10:55:14.970Z,100855.63
2022-09-04T10:57:58.992Z,100847.34
2022-09-04T11:00:35.396Z,100844.84
2022-09-04T11:03:17.277Z,100846.16
2022-09-04T11:06:02.420Z,100844.91
2022-09-04T11:08:42.885Z,100844.16
2022-09-04T11:11:26.999Z,100837.34
2022-09-04T11:14:28.336Z,100841.50
2022-09-04T11:17:30.526Z,100839.22
2022-09-04T11:20:32.524Z,100835.53
2022-09-04T11:23:25.219Z,100841.09
2022-09-04T11:26:23.803Z,100845.25
2022-09-04T11:29:22.063Z,100847.44
2022-09-04T11:32:12.215Z,100845.19
2022-09-04T11:35:12.491Z,100842.13
2022-09-04T11:38:05.073Z,100847.81
2022-09-04T11:41:07.483Z,100841.03
2022-09-04T11:44:04.628Z,100841.72
2022-09-04T11:47:04.156Z,100843.56
2022-09-04T11:49:58.490Z,100845.13
2022-09-04T11:52:31.816Z,100839.91
2022-09-04T11:55:31.293Z,100830.41
2022-09-04T11:58:10.863Z,100833.78
2022-09-04T12:00:47.242Z,100840.63
2022-09-04T12:03:42.329Z,100843.84
2022-09-04T12:06:26.482Z,100840.47
2022-09-04T12:09:19.716Z,100843.97
2022-09-04T12:12:29.999Z,100842.50
2022-09-04T12:15:22.286Z,100845.72
2022-09-04T12:18:23.856Z,100844.66
2022-09-04T12:21:12.311Z,100840.97
2022-09-04T12:24:14.945Z,100848.25
2022-09-04T12:27:07.418Z,100848.50
2022-09-04T12:30:04.681Z,100840.78
2022-09-04T12:33:08.199Z,100841.47
2022-09-04T12:36:07.805Z,100840.53
2022-09-04T12:39:10.074Z,100833.31
2022-09-04T12:41:48.018Z,100831.50
2022-09-04T12:44:29.267Z,100837.22
2022-09-04T12:47:14.105Z,100839.28
2022-09-04T12:49:58.793Z,100840.31
2022-09-04T12:52:54.092Z,100836.28
2022-09-04T12:55:36.271Z,100834.75
2022-09-04T12:58:15.206Z,100833.91
2022-09-04T13:00:52.152Z,100843.22
2022-09-04T13:03:28.769Z,100840.53
2022-09-04T13:06:13.371Z,100841.56
2022-09-04T13:08:53.632Z,100832.06
2022-09-04T13:11:39.065Z,100835.00
2022-09-04T13:14:26.235Z,100838.38
2022-09-04T13:16:59.676Z,100833.66
2022-09-04T13:19:36.157Z,100849.91
2022-09-04T13:22:14.592Z,100846.34
2022-09-04T13:24:52.904Z,100844.31
2022-09-04T13:27:35.032Z,100847.66
2022-09-04T13:30:09.749Z,100848.00
2022-09-04T13:33:12.845Z,100838.00
2022-09-04T13:35:53.607Z,100838.16
2022-09-04T13:38:53.486Z,100844.44
2022-09-04T13:41:58.814Z,100846.28
2022-09-04T13:44:50.965Z,100847.13
2022-09-04T13:47:32.769Z,100841.38
2022-09-04T13:50:10.027Z,100843.06
2022-09-04T13:52:43.594Z,100850.84
2022-09-04T13:55:17.977Z,100851.53
2022-09-04T13:57:53.291Z,100853.91
2022-09-04T14:00:26.232Z,100854.75
2022-09-04T14:03:02.616Z,100861.69
2022-09-04T14:05:37.657Z,100855.13
2022-09-04T14:08:13.374Z,100858.16
2022-09-04T14:11:00.683Z,100861.06
2022-09-04T14:13:41.737Z,100870.88
2022-09-04T14:16:15.597Z,100858.34
2022-09-04T14:19:01.793Z,100864.47
2022-09-04T14:21:44.540Z,100854.78
2022-09-04T14:24:18.176Z,100862.06
2022-09-04T14:26:53.836Z,100863.09
2022-09-04T14:29:32.641Z,100864.94
2022-09-04T14:32:13.667Z,100864.94
2022-09-04T14:34:52.597Z,100864.94
2022-09-04T14:37:36.164Z,100865.13
2022-09-04T14:40:10.568Z,100866.47
2022-09-04T14:42:47.348Z,100853.09
2022-09-04T14:45:24.515Z,100855.13
2022-09-04T14:47:59.988Z,100858.34
2022-09-04T14:50:31.121Z,100860.03
2022-09-04T14:53:03.666Z,100862.41
2022-09-04T14:55:34.844Z,100859.38
2022-09-04T14:58:11.176Z,100860.72
2022-09-04T15:00:59.204Z,100855.47
2022-09-04T15:03:34.642Z,100851.91
2022-09-04T15:06:09.841Z,100857.31
2022-09-04T15:08:40.701Z,100861.56
2022-09-04T15:11:14.099Z,100851.41
2022-09-04T15:13:53.044Z,100852.44
2022-09-04T15:16:28.343Z,100850.22
2022-09-04T15:19:22.420Z,100855.31
2022-09-04T15:22:00.038Z,100853.28
2022-09-04T15:24:32.298Z,100856.66
2022-09-04T15:27:08.344Z,100853.94
2022-09-04T15:29:42.516Z,100852.09
2022-09-04T15:32:15.828Z,100851.41
2022-09-04T15:34:48.096Z,100849.56
2022-09-04T15:37:23.254Z,100853.09
2022-09-04T15:40:01.205Z,100848.53
2022-09-04T15:42:42.783Z,100850.38
2022-09-04T15:45:19.807Z,100850.22
2022-09-04T15:48:27.996Z,100842.94
2022-09-04T15:51:13.665Z,100848.53
2022-09-04T15:53:46.543Z,100848.53
2022-09-04T15:56:32.308Z,100850.38
2022-09-04T15:59:07.406Z,100854.13
2022-09-04T16:01:45.975Z,100850.91
2022-09-04T16:04:23.299Z,100853.94
2022-09-04T16:06:58.958Z,100854.28
2022-09-04T16:09:33.206Z,100849.19
2022-09-04T16:12:07.099Z,100855.31
2022-09-04T16:14:44.463Z,100849.38
2022-09-04T16:17:16.924Z,100853.44
2022-09-04T16:19:50.132Z,100858.47
2022-09-04T16:22:32.044Z,100857.97
2022-09-04T16:25:11.082Z,100861.84
2022-09-04T16:27:46.755Z,100853.22
2022-09-04T16:30:36.328Z,100857.25
2022-09-04T16:33:20.455Z,100859.47
2022-09-04T16:35:55.999Z,100860.66
2022-09-04T16:38:33.334Z,100852.84
2022-09-04T16:41:06.182Z,100850.66
2022-09-04T16:43:36.749Z,100849.28
2022-09-04T16:46:12.905Z,100853.34
2022-09-04T16:48:49.188Z,100858.06
2022-09-04T16:51:40.207Z,100857.38
2022-09-04T16:54:16.399Z,100856.16
2022-09-04T16:56:50.056Z,100856.50
2022-09-04T16:59:30.772Z,100860.56
2022-09-04T17:02:03.601Z,100861.03
2022-09-04T17:04:41.961Z,100851.56
2022-09-04T17:07:17.535Z,100852.19
2022-09-04T17:09:56.058Z,100859.75
2022-09-04T17:12:33.285Z,100859.44
2022-09-04T17:15:11.136Z,100853.66
2022-09-04T17:17:45.762Z,100857.00
2022-09-04T17:20:33.662Z,100853.94
2022-09-04T17:29:03.950Z,100853.75
2022-09-04T17:29:13.161Z,100852.50
2022-09-04T17:29:34.388Z,100852.31
2022-09-04T17:34:16.741Z,100854.66
2022-09-04T17:40:50.974Z,100851.06
2022-09-04T17:40:56.103Z,100857.22
2022-09-04T17:41:35.765Z,100849.91
2022-09-04T17:44:02.335Z,100859.09
2022-09-04T17:46:36.743Z,100847.72
2022-09-04T17:49:17.641Z,100852.22
2022-09-04T17:51:54.089Z,100856.38
2022-09-04T17:54:28.961Z,100853.75
2022-09-04T17:57:02.466Z,100856.38
2022-09-04T17:59:43.659Z,100858.13
2022-09-04T18:02:17.638Z,100856.34
2022-09-04T18:04:53.362Z,100856.28
2022-09-04T18:08:07.781Z,100864.13
2022-09-04T18:10:28.157Z,100866.72
2022-09-04T18:13:08.911Z,100863.63
2022-09-04T18:16:10.887Z,100878.88
2022-09-04T18:18:42.181Z,100877.91
2022-09-04T18:21:18.432Z,100875.13
2022-09-04T18:23:52.428Z,100888.31
2022-09-04T18:26:40.218Z,100890.06
2022-09-04T18:31:11.290Z,100895.19
2022-09-04T18:37:18.981Z,100901.88
2022-09-04T18:37:26.905Z,100897.50
2022-09-04T18:38:32.405Z,100907.88
2022-09-04T18:44:41.808Z,100908.16
2022-09-04T18:50:40.774Z,100909.72
2022-09-04T18:50:42.793Z,100909.75
2022-09-04T18:50:46.886Z,100905.78
2022-09-04T18:52:51.134Z,100922.09
2022-09-04T18:55:26.869Z,100921.69
2022-09-04T18:57:58.847Z,100925.63
2022-09-04T19:00:31.586Z,100932.56
2022-09-04T19:03:10.500Z,100933.41
2022-09-04T19:05:45.355Z,100938.41
2022-09-04T19:08:21.857Z,100940.66
2022-09-04T19:10:55.374Z,100938.50
2022-09-04T19:13:29.224Z,100940.91
2022-09-04T19:16:02.650Z,100946.00
2022-09-04T19:18:41.718Z,100946.59
2022-09-04T19:21:42.870Z,100944.59
2022-09-04T19:24:34.181Z,100951.66
2022-09-04T19:27:26.412Z,100952.28
2022-09-04T19:30:18.778Z,100943.22
2022-09-04T19:33:08.356Z,100950.97
2022-09-04T19:35:40.721Z,100946.84
2022-09-04T19:41:53.262Z,100947.53
2022-09-04T19:46:04.809Z,100939.03
2022-09-04T19:46:15.052Z,100948.63
2022-09-04T19:47:04.142Z,100951.84
2022-09-04T19:53:18.951Z,100946.13
2022-09-04T19:53:32.458Z,100954.75
2022-09-04T19:55:40.692Z,100952.00
2022-09-04T19:58:12.814Z,100958.00
2022-09-04T20:00:48.847Z,100954.03
2022-09-04T20:03:29.256Z,100957.22
2022-09-04T20:06:21.025Z,100960.72
2022-09-04T20:08:56.154Z,100953.88
2022-09-04T20:11:34.696Z,100970.50
2022-09-04T20:14:13.808Z,100967.75
2022-09-04T20:16:50.945Z,100970.84
2022-09-04T20:19:28.073Z,100969.38
2022-09-04T20:22:02.965Z,100959.56
2022-09-04T20:24:39.696Z,100968.97
2022-09-04T20:27:19.197Z,100969.47
2022-09-04T20:29:54.746Z,100977.16
2022-09-04T20:32:28.515Z,100970.34
2022-09-04T20:35:13.819Z,100971.94
2022-09-04T20:37:53.805Z,100975.84
2022-09-04T20:40:33.308Z,100980.03
2022-09-04T20:43:22.760Z,100982.94
2022-09-04T20:48:51.097Z,100980.66
2022-09-04T20:52:50.937Z,100982.97
2022-09-04T20:52:52.791Z,100986.16
2022-09-04T20:55:17.870Z,100984.94
2022-09-04T21:03:11.710Z,100992.50
2022-09-04T21:03:20.725Z,100993.13
2022-09-04T21:04:05.182Z,100991.63
2022-09-04T21:06:39.095Z,100991.28
2022-09-04T21:09:15.347Z,100988.97
2022-09-04T21:11:47.840Z,100988.69
2022-09-04T21:14:28.621Z,100988.06
2022-09-04T21:17:35.041Z,100991.22
2022-09-04T21:20:31.814Z,100989.03
2022-09-04T21:23:11.490Z,100993.03
2022-09-04T21:25:51.430Z,100990.72
2022-09-04T21:28:41.229Z,100988.16
2022-09-04T21:31:17.685Z,100991.09
2022-09-04T21:34:01.923Z,100988.75
2022-09-04T21:36:36.719Z,100994.47
2022-09-04T21:39:36.235Z,100993.97
2022-09-04T21:42:19.616Z,100996.25
2022-09-04T21:45:22.420Z,100998.31
2022-09-04T21:48:18.142Z,101004.84
2022-09-04T21:51:04.024Z,101000.72
2022-09-04T21:54:13.061Z,101003.75
2022-09-04T22:02:28.296Z,101004.97
2022-09-04T22:02:39.038Z,101004.56
2022-09-04T22:03:31.504Z,101012.88
2022-09-04T22:06:11.092Z,101007.78
2022-09-04T22:13:35.215Z,101008.09
2022-09-04T22:13:46.420Z,101007.50
2022-09-04T22:14:54.866Z,101009.53
2022-09-04T22:17:44.682Z,101003.69
2022-09-04T22:20:23.620Z,101010.00
2022-09-04T22:23:33.558Z,101003.28
2022-09-04T22:26:32.101Z,101012.50
2022-09-04T22:29:25.188Z,101009.19
2022-09-04T22:32:27.136Z,101012.09
2022-09-04T22:35:39.066Z,101014.38
2022-09-04T22:38:32.506Z,101012.97
2022-09-04T22:41:13.001Z,101001.66
2022-09-04T22:43:47.128Z,101014.38
2022-09-04T22:46:41.495Z,101010.25
2022-09-04T22:49:49.507Z,101006.19
2022-09-04T22:52:43.966Z,101010.06
2022-09-04T22:56:22.601Z,101014.63
2022-09-04T22:58:42.954Z,101014.00
2022-09-04T23:01:29.576Z,101008.00
2022-09-04T23:04:14.529Z,101015.41
2022-09-04T23:10:13.820Z,101012.13
2022-09-04T23:13:48.888Z,101019.78
2022-09-04T23:14:01.902Z,101016.69
2022-09-04T23:16:32.192Z,101010.38
2022-09-04T23:26:36.294Z,101009.84
2022-09-04T23:26:42.858Z,101016.47
2022-09-04T23:26:47.007Z,101016.25
2022-09-04T23:28:40.517Z,101006.97
2022-09-04T23:31:37.187Z,101010.72
2022-09-04T23:34:35.292Z,101003.88
2022-09-04T23:37:28.425Z,101009.53
2022-09-04T23:40:37.597Z,101007.81
2022-09-04T23:43:52.382Z,101002.69
2022-09-04T23:46:41.715Z,101001.22
2022-09-04T23:49:29.871Z,101005.88
2022-09-04T23:52:04.930Z,101004.28
2022-09-04T23:55:03.195Z,100998.22
2022-09-04T23:57:42.052Z,101003.00
